sensor_id;sensor_type;location;lat;lon;timestamp;P1;durP1;ratioP1;P2;durP2;ratioP2
36669;SDS011;22662;47.412;9.742;2022-08-21T00:01:51;0.50;;;0.50;;
36669;SDS011;22662;47.412;9.742;2022-08-21T00:04:17;1.33;;;0.70;;
36669;SDS011;22662;47.412;9.742;2022-08-21T00:06:42;1.05;;;0.60;;
36669;SDS011;22662;47.412;9.742;2022-08-21T00:09:09;1.00;;;0.57;;
36669;SDS011;22662;47.412;9.742;2022-08-21T00:11:36;2.03;;;0.60;;
36669;SDS011;22662;47.412;9.742;2022-08-21T00:14:03;0.73;;;0.63;;
36669;SDS011;22662;47.412;9.742;2022-08-21T00:16:31;0.50;;;0.47;;
36669;SDS011;22662;47.412;9.742;2022-08-21T00:18:57;0.50;;;0.50;;
36669;SDS011;22662;47.412;9.742;2022-08-21T00:21:23;0.95;;;0.50;;
36669;SDS011;22662;47.412;9.742;2022-08-21T00:23:50;0.45;;;0.43;;
36669;SDS011;22662;47.412;9.742;2022-08-21T00:26:16;0.40;;;0.40;;
36669;SDS011;22662;47.412;9.742;2022-08-21T00:28:42;0.60;;;0.60;;
36669;SDS011;22662;47.412;9.742;2022-08-21T00:31:10;0.80;;;0.60;;
36669;SDS011;22662;47.412;9.742;2022-08-21T00:33:36;2.05;;;0.80;;
36669;SDS011;22662;47.412;9.742;2022-08-21T00:36:02;0.57;;;0.57;;
36669;SDS011;22662;47.412;9.742;2022-08-21T00:38:28;0.68;;;0.50;;
36669;SDS011;22662;47.412;9.742;2022-08-21T00:40:56;1.45;;;0.90;;
36669;SDS011;22662;47.412;9.742;2022-08-21T00:43:25;0.75;;;0.70;;
36669;SDS011;22662;47.412;9.742;2022-08-21T00:45:54;1.30;;;0.90;;
36669;SDS011;22662;47.412;9.742;2022-08-21T00:48:21;0.60;;;0.60;;
36669;SDS011;22662;47.412;9.742;2022-08-21T00:50:49;1.65;;;0.50;;
36669;SDS011;22662;47.412;9.742;2022-08-21T00:53:27;0.70;;;0.70;;
36669;SDS011;22662;47.412;9.742;2022-08-21T00:55:56;0.70;;;0.70;;
36669;SDS011;22662;47.412;9.742;2022-08-21T00:58:25;1.67;;;0.90;;
36669;SDS011;22662;47.412;9.742;2022-08-21T01:00:52;1.25;;;0.77;;
36669;SDS011;22662;47.412;9.742;2022-08-21T01:03:21;0.88;;;0.70;;
36669;SDS011;22662;47.412;9.742;2022-08-21T01:05:48;1.00;;;0.70;;
36669;SDS011;22662;47.412;9.742;2022-08-21T01:08:15;1.67;;;0.75;;
36669;SDS011;22662;47.412;9.742;2022-08-21T01:10:43;1.00;;;0.73;;
36669;SDS011;22662;47.412;9.742;2022-08-21T01:13:10;1.60;;;0.70;;
36669;SDS011;22662;47.412;9.742;2022-08-21T01:15:39;2.05;;;0.70;;
36669;SDS011;22662;47.412;9.742;2022-08-21T01:18:10;2.25;;;0.90;;
36669;SDS011;22662;47.412;9.742;2022-08-21T01:20:37;0.77;;;0.77;;
36669;SDS011;22662;47.412;9.742;2022-08-21T01:23:06;1.38;;;0.77;;
36669;SDS011;22662;47.412;9.742;2022-08-21T01:25:32;2.05;;;0.70;;
36669;SDS011;22662;47.412;9.742;2022-08-21T01:28:01;1.55;;;0.70;;
36669;SDS011;22662;47.412;9.742;2022-08-21T01:30:31;1.73;;;0.70;;
36669;SDS011;22662;47.412;9.742;2022-08-21T01:32:59;1.00;;;0.80;;
36669;SDS011;22662;47.412;9.742;2022-08-21T01:35:25;1.77;;;0.60;;
36669;SDS011;22662;47.412;9.742;2022-08-21T01:37:51;1.08;;;0.65;;
36669;SDS011;22662;47.412;9.742;2022-08-21T01:40:17;0.50;;;0.50;;
36669;SDS011;22662;47.412;9.742;2022-08-21T01:42:43;0.68;;;0.60;;
36669;SDS011;22662;47.412;9.742;2022-08-21T01:45:11;0.98;;;0.60;;
36669;SDS011;22662;47.412;9.742;2022-08-21T01:47:38;1.42;;;0.70;;
36669;SDS011;22662;47.412;9.742;2022-08-21T01:50:06;1.52;;;0.50;;
36669;SDS011;22662;47.412;9.742;2022-08-21T01:52:34;0.88;;;0.60;;
36669;SDS011;22662;47.412;9.742;2022-08-21T01:55:00;1.27;;;0.47;;
36669;SDS011;22662;47.412;9.742;2022-08-21T01:57:26;0.60;;;0.60;;
36669;SDS011;22662;47.412;9.742;2022-08-21T01:59:52;1.67;;;0.60;;
36669;SDS011;22662;47.412;9.742;2022-08-21T02:02:18;0.80;;;0.63;;
36669;SDS011;22662;47.412;9.742;2022-08-21T02:04:43;0.80;;;0.70;;
36669;SDS011;22662;47.412;9.742;2022-08-21T02:07:09;0.60;;;0.60;;
36669;SDS011;22662;47.412;9.742;2022-08-21T02:09:35;0.73;;;0.73;;
36669;SDS011;22662;47.412;9.742;2022-08-21T02:12:01;1.73;;;0.70;;
36669;SDS011;22662;47.412;9.742;2022-08-21T02:14:27;0.70;;;0.70;;
36669;SDS011;22662;47.412;9.742;2022-08-21T02:16:53;1.23;;;0.80;;
36669;SDS011;22662;47.412;9.742;2022-08-21T02:19:19;1.15;;;1.05;;
36669;SDS011;22662;47.412;9.742;2022-08-21T02:21:44;1.48;;;0.95;;
36669;SDS011;22662;47.412;9.742;2022-08-21T02:24:10;1.25;;;0.90;;
36669;SDS011;22662;47.412;9.742;2022-08-21T02:26:36;2.00;;;0.90;;
36669;SDS011;22662;47.412;9.742;2022-08-21T02:29:03;1.55;;;1.10;;
36669;SDS011;22662;47.412;9.742;2022-08-21T02:31:29;1.10;;;1.00;;
36669;SDS011;22662;47.412;9.742;2022-08-21T02:33:56;1.48;;;0.98;;
36669;SDS011;22662;47.412;9.742;2022-08-21T02:36:22;0.77;;;0.77;;
36669;SDS011;22662;47.412;9.742;2022-08-21T02:38:47;2.25;;;1.02;;
36669;SDS011;22662;47.412;9.742;2022-08-21T02:41:15;1.75;;;0.88;;
36669;SDS011;22662;47.412;9.742;2022-08-21T02:43:43;1.23;;;1.00;;
36669;SDS011;22662;47.412;9.742;2022-08-21T02:46:10;1.05;;;0.90;;
36669;SDS011;22662;47.412;9.742;2022-08-21T02:48:38;1.10;;;1.00;;
36669;SDS011;22662;47.412;9.742;2022-08-21T02:51:06;0.73;;;0.70;;
36669;SDS011;22662;47.412;9.742;2022-08-21T02:53:37;1.63;;;0.70;;
36669;SDS011;22662;47.412;9.742;2022-08-21T02:56:06;2.33;;;0.75;;
36669;SDS011;22662;47.412;9.742;2022-08-21T02:58:36;1.55;;;0.68;;
36669;SDS011;22662;47.412;9.742;2022-08-21T03:01:11;1.00;;;0.90;;
36669;SDS011;22662;47.412;9.742;2022-08-21T03:03:38;1.60;;;0.70;;
36669;SDS011;22662;47.412;9.742;2022-08-21T03:06:06;0.50;;;0.50;;
36669;SDS011;22662;47.412;9.742;2022-08-21T03:08:34;3.30;;;0.70;;
36669;SDS011;22662;47.412;9.742;2022-08-21T03:11:00;0.60;;;0.60;;
36669;SDS011;22662;47.412;9.742;2022-08-21T03:13:27;0.70;;;0.70;;
36669;SDS011;22662;47.412;9.742;2022-08-21T03:15:53;1.10;;;0.60;;
36669;SDS011;22662;47.412;9.742;2022-08-21T03:18:18;0.50;;;0.50;;
36669;SDS011;22662;47.412;9.742;2022-08-21T03:20:45;0.70;;;0.70;;
36669;SDS011;22662;47.412;9.742;2022-08-21T03:23:11;0.98;;;0.63;;
36669;SDS011;22662;47.412;9.742;2022-08-21T03:25:38;2.45;;;0.70;;
36669;SDS011;22662;47.412;9.742;2022-08-21T03:28:05;1.08;;;0.70;;
36669;SDS011;22662;47.412;9.742;2022-08-21T03:30:33;0.82;;;0.65;;
36669;SDS011;22662;47.412;9.742;2022-08-21T03:32:59;1.15;;;0.60;;
36669;SDS011;22662;47.412;9.742;2022-08-21T03:35:26;0.60;;;0.60;;
36669;SDS011;22662;47.412;9.742;2022-08-21T03:37:53;1.27;;;0.70;;
36669;SDS011;22662;47.412;9.742;2022-08-21T03:40:19;1.33;;;0.52;;
36669;SDS011;22662;47.412;9.742;2022-08-21T03:42:46;1.25;;;0.80;;
36669;SDS011;22662;47.412;9.742;2022-08-21T03:45:13;2.30;;;0.80;;
36669;SDS011;22662;47.412;9.742;2022-08-21T03:48:17;0.52;;;0.52;;
36669;SDS011;22662;47.412;9.742;2022-08-21T03:50:37;1.58;;;0.70;;
36669;SDS011;22662;47.412;9.742;2022-08-21T03:53:04;0.90;;;0.70;;
36669;SDS011;22662;47.412;9.742;2022-08-21T03:55:31;0.82;;;0.82;;
36669;SDS011;22662;47.412;9.742;2022-08-21T03:57:57;1.17;;;0.80;;
36669;SDS011;22662;47.412;9.742;2022-08-21T04:00:23;1.38;;;0.85;;
36669;SDS011;22662;47.412;9.742;2022-08-21T04:02:49;0.88;;;0.70;;
36669;SDS011;22662;47.412;9.742;2022-08-21T04:05:15;0.80;;;0.80;;
36669;SDS011;22662;47.412;9.742;2022-08-21T04:07:59;1.50;;;1.00;;
36669;SDS011;22662;47.412;9.742;2022-08-21T04:10:28;1.67;;;0.90;;
36669;SDS011;22662;47.412;9.742;2022-08-21T04:12:55;1.45;;;0.90;;
36669;SDS011;22662;47.412;9.742;2022-08-21T04:15:22;2.08;;;0.90;;
36669;SDS011;22662;47.412;9.742;2022-08-21T04:17:48;1.42;;;0.82;;
36669;SDS011;22662;47.412;9.742;2022-08-21T04:20:15;1.80;;;0.80;;
36669;SDS011;22662;47.412;9.742;2022-08-21T04:22:43;0.82;;;0.82;;
36669;SDS011;22662;47.412;9.742;2022-08-21T04:25:09;2.95;;;0.75;;
36669;SDS011;22662;47.412;9.742;2022-08-21T04:27:36;1.33;;;0.68;;
36669;SDS011;22662;47.412;9.742;2022-08-21T04:30:03;1.98;;;1.00;;
36669;SDS011;22662;47.412;9.742;2022-08-21T04:32:29;1.33;;;0.98;;
36669;SDS011;22662;47.412;9.742;2022-08-21T04:35:07;2.08;;;0.85;;
36669;SDS011;22662;47.412;9.742;2022-08-21T04:37:34;1.25;;;1.10;;
36669;SDS011;22662;47.412;9.742;2022-08-21T04:40:02;1.23;;;1.10;;
36669;SDS011;22662;47.412;9.742;2022-08-21T04:42:29;2.05;;;0.80;;
36669;SDS011;22662;47.412;9.742;2022-08-21T04:44:55;1.10;;;1.00;;
36669;SDS011;22662;47.412;9.742;2022-08-21T04:47:22;2.25;;;1.38;;
36669;SDS011;22662;47.412;9.742;2022-08-21T04:49:49;1.52;;;1.42;;
36669;SDS011;22662;47.412;9.742;2022-08-21T04:52:19;2.53;;;1.48;;
36669;SDS011;22662;47.412;9.742;2022-08-21T04:54:48;3.55;;;1.42;;
36669;SDS011;22662;47.412;9.742;2022-08-21T04:57:16;2.80;;;1.30;;
36669;SDS011;22662;47.412;9.742;2022-08-21T04:59:44;1.65;;;1.10;;
36669;SDS011;22662;47.412;9.742;2022-08-21T05:02:15;1.17;;;1.08;;
36669;SDS011;22662;47.412;9.742;2022-08-21T05:04:43;3.15;;;1.70;;
36669;SDS011;22662;47.412;9.742;2022-08-21T05:07:15;2.35;;;1.10;;
36669;SDS011;22662;47.412;9.742;2022-08-21T05:09:45;1.40;;;0.88;;
36669;SDS011;22662;47.412;9.742;2022-08-21T05:12:11;1.48;;;1.23;;
36669;SDS011;22662;47.412;9.742;2022-08-21T05:14:37;2.08;;;1.00;;
36669;SDS011;22662;47.412;9.742;2022-08-21T05:17:03;1.45;;;0.85;;
36669;SDS011;22662;47.412;9.742;2022-08-21T05:19:30;0.85;;;0.70;;
36669;SDS011;22662;47.412;9.742;2022-08-21T05:21:56;2.05;;;0.73;;
36669;SDS011;22662;47.412;9.742;2022-08-21T05:24:23;2.50;;;0.65;;
36669;SDS011;22662;47.412;9.742;2022-08-21T05:26:49;1.60;;;0.88;;
36669;SDS011;22662;47.412;9.742;2022-08-21T05:29:16;1.85;;;0.98;;
36669;SDS011;22662;47.412;9.742;2022-08-21T05:31:42;1.10;;;0.73;;
36669;SDS011;22662;47.412;9.742;2022-08-21T05:34:08;3.28;;;1.20;;
36669;SDS011;22662;47.412;9.742;2022-08-21T05:36:34;1.67;;;0.93;;
36669;SDS011;22662;47.412;9.742;2022-08-21T05:39:00;0.75;;;0.75;;
36669;SDS011;22662;47.412;9.742;2022-08-21T05:41:25;2.65;;;0.98;;
36669;SDS011;22662;47.412;9.742;2022-08-21T05:43:51;1.88;;;0.73;;
36669;SDS011;22662;47.412;9.742;2022-08-21T05:46:17;1.23;;;1.00;;
36669;SDS011;22662;47.412;9.742;2022-08-21T05:48:43;2.13;;;0.98;;
36669;SDS011;22662;47.412;9.742;2022-08-21T05:51:10;1.25;;;0.80;;
36669;SDS011;22662;47.412;9.742;2022-08-21T05:53:39;1.92;;;0.85;;
36669;SDS011;22662;47.412;9.742;2022-08-21T05:56:07;1.60;;;0.85;;
36669;SDS011;22662;47.412;9.742;2022-08-21T05:58:34;1.25;;;0.80;;
36669;SDS011;22662;47.412;9.742;2022-08-21T06:01:00;1.13;;;0.82;;
36669;SDS011;22662;47.412;9.742;2022-08-21T06:03:35;0.88;;;0.45;;
36669;SDS011;22662;47.412;9.742;2022-08-21T06:06:02;2.67;;;0.63;;
36669;SDS011;22662;47.412;9.742;2022-08-21T06:08:28;0.50;;;0.50;;
36669;SDS011;22662;47.412;9.742;2022-08-21T06:10:55;0.80;;;0.50;;
36669;SDS011;22662;47.412;9.742;2022-08-21T06:13:23;3.40;;;0.85;;
36669;SDS011;22662;47.412;9.742;2022-08-21T06:15:49;0.85;;;0.60;;
36669;SDS011;22662;47.412;9.742;2022-08-21T06:18:15;1.25;;;0.73;;
36669;SDS011;22662;47.412;9.742;2022-08-21T06:20:42;1.90;;;0.60;;
36669;SDS011;22662;47.412;9.742;2022-08-21T06:23:08;1.42;;;0.50;;
36669;SDS011;22662;47.412;9.742;2022-08-21T06:25:34;0.68;;;0.40;;
36669;SDS011;22662;47.412;9.742;2022-08-21T06:28:04;0.73;;;0.50;;
36669;SDS011;22662;47.412;9.742;2022-08-21T06:30:32;1.63;;;0.63;;
36669;SDS011;22662;47.412;9.742;2022-08-21T06:32:58;1.10;;;0.60;;
36669;SDS011;22662;47.412;9.742;2022-08-21T06:35:24;0.60;;;0.60;;
36669;SDS011;22662;47.412;9.742;2022-08-21T06:37:50;1.60;;;0.80;;
36669;SDS011;22662;47.412;9.742;2022-08-21T06:40:16;2.53;;;1.10;;
36669;SDS011;22662;47.412;9.742;2022-08-21T06:42:42;0.77;;;0.77;;
36669;SDS011;22662;47.412;9.742;2022-08-21T06:45:08;1.52;;;0.80;;
36669;SDS011;22662;47.412;9.742;2022-08-21T06:47:35;1.75;;;0.98;;
36669;SDS011;22662;47.412;9.742;2022-08-21T06:50:01;0.93;;;0.85;;
36669;SDS011;22662;47.412;9.742;2022-08-21T06:52:27;1.60;;;0.88;;
36669;SDS011;22662;47.412;9.742;2022-08-21T06:54:53;5.88;;;1.00;;
36669;SDS011;22662;47.412;9.742;2022-08-21T06:57:19;1.20;;;0.80;;
36669;SDS011;22662;47.412;9.742;2022-08-21T06:59:44;1.48;;;1.00;;
36669;SDS011;22662;47.412;9.742;2022-08-21T07:02:10;1.83;;;1.13;;
36669;SDS011;22662;47.412;9.742;2022-08-21T07:04:36;1.67;;;1.10;;
36669;SDS011;22662;47.412;9.742;2022-08-21T07:07:02;1.52;;;1.00;;
36669;SDS011;22662;47.412;9.742;2022-08-21T07:09:27;1.27;;;1.02;;
36669;SDS011;22662;47.412;9.742;2022-08-21T07:11:54;2.08;;;0.90;;
36669;SDS011;22662;47.412;9.742;2022-08-21T07:14:21;1.60;;;1.02;;
36669;SDS011;22662;47.412;9.742;2022-08-21T07:16:47;1.23;;;0.85;;
36669;SDS011;22662;47.412;9.742;2022-08-21T07:19:13;0.90;;;0.90;;
36669;SDS011;22662;47.412;9.742;2022-08-21T07:21:39;1.00;;;0.73;;
36669;SDS011;22662;47.412;9.742;2022-08-21T07:24:05;1.35;;;0.60;;
36669;SDS011;22662;47.412;9.742;2022-08-21T07:26:31;2.50;;;0.70;;
36669;SDS011;22662;47.412;9.742;2022-08-21T07:28:57;1.38;;;0.60;;
36669;SDS011;22662;47.412;9.742;2022-08-21T07:31:23;0.60;;;0.60;;
36669;SDS011;22662;47.412;9.742;2022-08-21T07:33:50;1.88;;;0.80;;
36669;SDS011;22662;47.412;9.742;2022-08-21T07:36:16;0.93;;;0.50;;
36669;SDS011;22662;47.412;9.742;2022-08-21T07:38:42;1.52;;;0.70;;
36669;SDS011;22662;47.412;9.742;2022-08-21T07:41:16;2.10;;;0.90;;
36669;SDS011;22662;47.412;9.742;2022-08-21T07:43:50;1.75;;;0.90;;
36669;SDS011;22662;47.412;9.742;2022-08-21T07:46:16;1.42;;;0.90;;
36669;SDS011;22662;47.412;9.742;2022-08-21T07:48:42;1.05;;;0.95;;
36669;SDS011;22662;47.412;9.742;2022-08-21T07:51:09;0.93;;;0.90;;
36669;SDS011;22662;47.412;9.742;2022-08-21T07:53:37;1.23;;;0.70;;
36669;SDS011;22662;47.412;9.742;2022-08-21T07:56:04;0.82;;;0.63;;
36669;SDS011;22662;47.412;9.742;2022-08-21T07:58:31;1.90;;;0.70;;
36669;SDS011;22662;47.412;9.742;2022-08-21T08:00:57;1.48;;;0.80;;
36669;SDS011;22662;47.412;9.742;2022-08-21T08:03:23;1.27;;;0.75;;
36669;SDS011;22662;47.412;9.742;2022-08-21T08:05:49;1.27;;;0.90;;
36669;SDS011;22662;47.412;9.742;2022-08-21T08:08:15;1.35;;;0.88;;
36669;SDS011;22662;47.412;9.742;2022-08-21T08:10:42;1.15;;;0.80;;
36669;SDS011;22662;47.412;9.742;2022-08-21T08:13:09;1.90;;;0.70;;
36669;SDS011;22662;47.412;9.742;2022-08-21T08:15:35;1.88;;;0.80;;
36669;SDS011;22662;47.412;9.742;2022-08-21T08:18:01;0.70;;;0.70;;
36669;SDS011;22662;47.412;9.742;2022-08-21T08:20:27;0.90;;;0.70;;
36669;SDS011;22662;47.412;9.742;2022-08-21T08:22:54;0.98;;;0.77;;
36669;SDS011;22662;47.412;9.742;2022-08-21T08:25:21;0.82;;;0.57;;
36669;SDS011;22662;47.412;9.742;2022-08-21T08:27:48;0.60;;;0.60;;
36669;SDS011;22662;47.412;9.742;2022-08-21T08:30:15;0.50;;;0.50;;
36669;SDS011;22662;47.412;9.742;2022-08-21T08:32:43;1.40;;;0.50;;
36669;SDS011;22662;47.412;9.742;2022-08-21T08:35:10;0.63;;;0.63;;
36669;SDS011;22662;47.412;9.742;2022-08-21T08:37:36;0.80;;;0.80;;
36669;SDS011;22662;47.412;9.742;2022-08-21T08:40:06;0.75;;;0.73;;
36669;SDS011;22662;47.412;9.742;2022-08-21T08:42:37;1.75;;;0.80;;
36669;SDS011;22662;47.412;9.742;2022-08-21T08:47:35;0.88;;;0.80;;
36669;SDS011;22662;47.412;9.742;2022-08-21T08:50:07;1.02;;;0.70;;
36669;SDS011;22662;47.412;9.742;2022-08-21T08:52:50;2.47;;;0.85;;
36669;SDS011;22662;47.412;9.742;2022-08-21T08:55:33;1.27;;;0.80;;
36669;SDS011;22662;47.412;9.742;2022-08-21T08:58:03;0.80;;;0.75;;
36669;SDS011;22662;47.412;9.742;2022-08-21T09:00:29;1.50;;;0.82;;
36669;SDS011;22662;47.412;9.742;2022-08-21T09:02:56;0.80;;;0.80;;
36669;SDS011;22662;47.412;9.742;2022-08-21T09:21:09;1.17;;;0.90;;
36669;SDS011;22662;47.412;9.742;2022-08-21T09:29:23;0.80;;;0.80;;
36669;SDS011;22662;47.412;9.742;2022-08-21T09:31:54;0.85;;;0.68;;
36669;SDS011;22662;47.412;9.742;2022-08-21T09:34:27;1.13;;;0.82;;
36669;SDS011;22662;47.412;9.742;2022-08-21T09:36:54;1.05;;;0.70;;
36669;SDS011;22662;47.412;9.742;2022-08-21T09:39:28;0.70;;;0.70;;
36669;SDS011;22662;47.412;9.742;2022-08-21T09:42:01;0.95;;;0.80;;
36669;SDS011;22662;47.412;9.742;2022-08-21T09:44:30;1.25;;;1.10;;
36669;SDS011;22662;47.412;9.742;2022-08-21T09:46:58;0.98;;;0.80;;
36669;SDS011;22662;47.412;9.742;2022-08-21T09:49:42;0.65;;;0.65;;
36669;SDS011;22662;47.412;9.742;2022-08-21T09:52:19;0.70;;;0.70;;
36669;SDS011;22662;47.412;9.742;2022-08-21T09:54:48;0.82;;;0.65;;
36669;SDS011;22662;47.412;9.742;2022-08-21T09:57:19;2.13;;;0.90;;
36669;SDS011;22662;47.412;9.742;2022-08-21T10:02:40;0.93;;;0.90;;
36669;SDS011;22662;47.412;9.742;2022-08-21T10:05:16;0.77;;;0.77;;
36669;SDS011;22662;47.412;9.742;2022-08-21T10:07:42;0.80;;;0.80;;
36669;SDS011;22662;47.412;9.742;2022-08-21T10:12:48;0.98;;;0.88;;
36669;SDS011;22662;47.412;9.742;2022-08-21T10:18:02;1.00;;;0.80;;
36669;SDS011;22662;47.412;9.742;2022-08-21T10:20:54;0.82;;;0.80;;
36669;SDS011;22662;47.412;9.742;2022-08-21T10:23:37;1.20;;;1.10;;
36669;SDS011;22662;47.412;9.742;2022-08-21T10:29:09;0.90;;;0.90;;
36669;SDS011;22662;47.412;9.742;2022-08-21T10:31:54;1.30;;;1.20;;
36669;SDS011;22662;47.412;9.742;2022-08-21T10:34:56;1.17;;;1.08;;
36669;SDS011;22662;47.412;9.742;2022-08-21T10:42:35;2.80;;;1.52;;
36669;SDS011;22662;47.412;9.742;2022-08-21T10:45:36;1.85;;;1.20;;
36669;SDS011;22662;47.412;9.742;2022-08-21T10:48:08;1.10;;;1.00;;
36669;SDS011;22662;47.412;9.742;2022-08-21T10:51:28;1.50;;;1.38;;
36669;SDS011;22662;47.412;9.742;2022-08-21T10:56:30;3.33;;;1.05;;
36669;SDS011;22662;47.412;9.742;2022-08-21T11:01:28;1.70;;;1.23;;
36669;SDS011;22662;47.412;9.742;2022-08-21T11:06:42;1.60;;;1.10;;
36669;SDS011;22662;47.412;9.742;2022-08-21T11:09:14;2.70;;;1.42;;
36669;SDS011;22662;47.412;9.742;2022-08-21T11:11:50;1.00;;;0.95;;
36669;SDS011;22662;47.412;9.742;2022-08-21T11:17:18;2.05;;;0.93;;
36669;SDS011;22662;47.412;9.742;2022-08-21T11:25:11;1.05;;;0.90;;
36669;SDS011;22662;47.412;9.742;2022-08-21T11:27:52;1.50;;;0.88;;
36669;SDS011;22662;47.412;9.742;2022-08-21T11:30:24;1.50;;;0.90;;
36669;SDS011;22662;47.412;9.742;2022-08-21T11:33:17;0.82;;;0.82;;
36669;SDS011;22662;47.412;9.742;2022-08-21T11:36:26;2.30;;;1.02;;
36669;SDS011;22662;47.412;9.742;2022-08-21T11:52:35;2.00;;;0.90;;
36669;SDS011;22662;47.412;9.742;2022-08-21T11:55:12;1.88;;;1.05;;
36669;SDS011;22662;47.412;9.742;2022-08-21T12:00:44;1.50;;;1.10;;
36669;SDS011;22662;47.412;9.742;2022-08-21T12:03:28;1.45;;;1.05;;
36669;SDS011;22662;47.412;9.742;2022-08-21T12:05:58;1.70;;;0.98;;
36669;SDS011;22662;47.412;9.742;2022-08-21T12:08:35;1.30;;;0.80;;
36669;SDS011;22662;47.412;9.742;2022-08-21T12:13:51;2.97;;;1.13;;
36669;SDS011;22662;47.412;9.742;2022-08-21T12:16:39;1.48;;;0.93;;
36669;SDS011;22662;47.412;9.742;2022-08-21T12:21:47;1.88;;;0.98;;
36669;SDS011;22662;47.412;9.742;2022-08-21T12:24:20;1.23;;;0.73;;
36669;SDS011;22662;47.412;9.742;2022-08-21T12:29:45;1.98;;;0.90;;
36669;SDS011;22662;47.412;9.742;2022-08-21T12:34:49;1.27;;;1.00;;
36669;SDS011;22662;47.412;9.742;2022-08-21T12:37:22;1.13;;;0.85;;
36669;SDS011;22662;47.412;9.742;2022-08-21T12:40:09;1.55;;;1.00;;
36669;SDS011;22662;47.412;9.742;2022-08-21T12:42:46;1.50;;;0.90;;
36669;SDS011;22662;47.412;9.742;2022-08-21T12:45:19;0.80;;;0.73;;
36669;SDS011;22662;47.412;9.742;2022-08-21T12:47:56;1.83;;;0.90;;
36669;SDS011;22662;47.412;9.742;2022-08-21T12:50:44;1.83;;;0.88;;
36669;SDS011;22662;47.412;9.742;2022-08-21T12:56:01;1.67;;;1.10;;
36669;SDS011;22662;47.412;9.742;2022-08-21T12:58:29;1.08;;;0.80;;
36669;SDS011;22662;47.412;9.742;2022-08-21T13:01:03;2.63;;;0.85;;
36669;SDS011;22662;47.412;9.742;2022-08-21T13:03:30;1.52;;;0.80;;
36669;SDS011;22662;47.412;9.742;2022-08-21T13:05:57;1.23;;;0.80;;
36669;SDS011;22662;47.412;9.742;2022-08-21T13:08:24;1.23;;;0.80;;
36669;SDS011;22662;47.412;9.742;2022-08-21T13:10:56;1.33;;;0.75;;
36669;SDS011;22662;47.412;9.742;2022-08-21T13:13:27;1.42;;;0.70;;
36669;SDS011;22662;47.412;9.742;2022-08-21T13:16:04;2.22;;;0.88;;
36669;SDS011;22662;47.412;9.742;2022-08-21T13:18:32;1.30;;;0.82;;
36669;SDS011;22662;47.412;9.742;2022-08-21T13:21:09;1.38;;;0.80;;
36669;SDS011;22662;47.412;9.742;2022-08-21T13:23:40;2.85;;;0.80;;
36669;SDS011;22662;47.412;9.742;2022-08-21T13:26:16;1.45;;;0.80;;
36669;SDS011;22662;47.412;9.742;2022-08-21T13:28:44;1.23;;;0.73;;
36669;SDS011;22662;47.412;9.742;2022-08-21T13:31:15;0.85;;;0.57;;
36669;SDS011;22662;47.412;9.742;2022-08-21T13:33:46;1.23;;;0.70;;
36669;SDS011;22662;47.412;9.742;2022-08-21T13:36:14;2.00;;;0.90;;
36669;SDS011;22662;47.412;9.742;2022-08-21T13:38:45;1.23;;;0.70;;
36669;SDS011;22662;47.412;9.742;2022-08-21T13:41:25;1.02;;;0.60;;
36669;SDS011;22662;47.412;9.742;2022-08-21T13:46:26;0.93;;;0.50;;
36669;SDS011;22662;47.412;9.742;2022-08-21T13:51:22;3.88;;;0.90;;
36669;SDS011;22662;47.412;9.742;2022-08-21T13:53:50;1.10;;;0.60;;
36669;SDS011;22662;47.412;9.742;2022-08-21T14:03:54;1.13;;;0.70;;
36669;SDS011;22662;47.412;9.742;2022-08-21T14:06:33;1.23;;;0.90;;
36669;SDS011;22662;47.412;9.742;2022-08-21T14:09:12;1.33;;;0.82;;
36669;SDS011;22662;47.412;9.742;2022-08-21T14:11:48;1.08;;;0.80;;
36669;SDS011;22662;47.412;9.742;2022-08-21T14:16:52;1.25;;;0.98;;
36669;SDS011;22662;47.412;9.742;2022-08-21T14:19:25;1.17;;;1.00;;
36669;SDS011;22662;47.412;9.742;2022-08-21T14:21:51;1.90;;;0.80;;
36669;SDS011;22662;47.412;9.742;2022-08-21T14:26:56;3.50;;;0.77;;
36669;SDS011;22662;47.412;9.742;2022-08-21T14:29:32;2.05;;;0.90;;
36669;SDS011;22662;47.412;9.742;2022-08-21T14:32:12;1.83;;;0.90;;
36669;SDS011;22662;47.412;9.742;2022-08-21T14:34:40;1.33;;;0.88;;
36669;SDS011;22662;47.412;9.742;2022-08-21T14:37:06;1.42;;;1.00;;
36669;SDS011;22662;47.412;9.742;2022-08-21T14:39:32;1.73;;;0.90;;
36669;SDS011;22662;47.412;9.742;2022-08-21T14:41:58;1.70;;;1.08;;
36669;SDS011;22662;47.412;9.742;2022-08-21T14:44:25;1.00;;;0.90;;
36669;SDS011;22662;47.412;9.742;2022-08-21T14:46:52;1.73;;;0.80;;
36669;SDS011;22662;47.412;9.742;2022-08-21T14:49:20;1.15;;;0.77;;
36669;SDS011;22662;47.412;9.742;2022-08-21T14:51:46;3.20;;;1.00;;
36669;SDS011;22662;47.412;9.742;2022-08-21T14:54:12;1.67;;;0.80;;
36669;SDS011;22662;47.412;9.742;2022-08-21T14:56:37;2.00;;;0.80;;
36669;SDS011;22662;47.412;9.742;2022-08-21T14:59:05;1.10;;;0.90;;
36669;SDS011;22662;47.412;9.742;2022-08-21T15:01:34;8.10;;;1.02;;
36669;SDS011;22662;47.412;9.742;2022-08-21T15:04:01;1.52;;;0.90;;
36669;SDS011;22662;47.412;9.742;2022-08-21T15:06:27;1.33;;;0.70;;
36669;SDS011;22662;47.412;9.742;2022-08-21T15:08:53;1.73;;;0.80;;
36669;SDS011;22662;47.412;9.742;2022-08-21T15:11:19;1.05;;;0.70;;
36669;SDS011;22662;47.412;9.742;2022-08-21T15:13:46;2.42;;;0.85;;
36669;SDS011;22662;47.412;9.742;2022-08-21T15:16:14;1.00;;;0.90;;
36669;SDS011;22662;47.412;9.742;2022-08-21T15:18:40;1.48;;;0.80;;
36669;SDS011;22662;47.412;9.742;2022-08-21T15:21:07;1.25;;;0.70;;
36669;SDS011;22662;47.412;9.742;2022-08-21T15:23:33;0.88;;;0.73;;
36669;SDS011;22662;47.412;9.742;2022-08-21T15:26:00;0.52;;;0.50;;
36669;SDS011;22662;47.412;9.742;2022-08-21T15:30:51;0.73;;;0.60;;
36669;SDS011;22662;47.412;9.742;2022-08-21T15:33:18;1.85;;;0.93;;
36669;SDS011;22662;47.412;9.742;2022-08-21T15:35:44;1.23;;;0.70;;
36669;SDS011;22662;47.412;9.742;2022-08-21T15:38:11;0.65;;;0.45;;
36669;SDS011;22662;47.412;9.742;2022-08-21T15:40:38;0.80;;;0.60;;
36669;SDS011;22662;47.412;9.742;2022-08-21T15:43:05;1.42;;;0.60;;
36669;SDS011;22662;47.412;9.742;2022-08-21T15:45:32;0.77;;;0.57;;
36669;SDS011;22662;47.412;9.742;2022-08-21T15:47:58;0.95;;;0.60;;
36669;SDS011;22662;47.412;9.742;2022-08-21T15:50:25;1.13;;;0.75;;
36669;SDS011;22662;47.412;9.742;2022-08-21T15:52:53;0.73;;;0.60;;
36669;SDS011;22662;47.412;9.742;2022-08-21T15:55:19;1.00;;;0.73;;
36669;SDS011;22662;47.412;9.742;2022-08-21T15:57:46;0.70;;;0.68;;
36669;SDS011;22662;47.412;9.742;2022-08-21T16:00:20;0.80;;;0.73;;
36669;SDS011;22662;47.412;9.742;2022-08-21T16:02:48;2.00;;;0.70;;
36669;SDS011;22662;47.412;9.742;2022-08-21T16:05:20;1.77;;;0.80;;
36669;SDS011;22662;47.412;9.742;2022-08-21T16:07:46;0.75;;;0.73;;
36669;SDS011;22662;47.412;9.742;2022-08-21T16:10:14;0.93;;;0.63;;
36669;SDS011;22662;47.412;9.742;2022-08-21T16:12:43;1.25;;;0.77;;
36669;SDS011;22662;47.412;9.742;2022-08-21T16:15:13;0.75;;;0.65;;
36669;SDS011;22662;47.412;9.742;2022-08-21T16:17:41;0.73;;;0.43;;
36669;SDS011;22662;47.412;9.742;2022-08-21T16:20:12;1.13;;;0.73;;
36669;SDS011;22662;47.412;9.742;2022-08-21T16:22:41;1.15;;;0.75;;
36669;SDS011;22662;47.412;9.742;2022-08-21T16:25:07;0.77;;;0.70;;
36669;SDS011;22662;47.412;9.742;2022-08-21T16:27:33;1.35;;;0.77;;
36669;SDS011;22662;47.412;9.742;2022-08-21T16:30:00;1.25;;;0.88;;
36669;SDS011;22662;47.412;9.742;2022-08-21T16:32:28;1.45;;;0.50;;
36669;SDS011;22662;47.412;9.742;2022-08-21T16:34:54;0.88;;;0.60;;
36669;SDS011;22662;47.412;9.742;2022-08-21T16:37:20;1.17;;;0.63;;
36669;SDS011;22662;47.412;9.742;2022-08-21T16:39:46;2.25;;;0.70;;
36669;SDS011;22662;47.412;9.742;2022-08-21T16:42:13;0.98;;;0.68;;
36669;SDS011;22662;47.412;9.742;2022-08-21T16:44:42;1.35;;;0.70;;
36669;SDS011;22662;47.412;9.742;2022-08-21T16:47:08;0.80;;;0.70;;